Time;durP1;ratioP1;P1;durP2;ratioP2;P2;SDS_P1;SDS_P2;PMS_P1;PMS_P2;Temp;Humidity;BMP_temperature;BMP_pressure;BME280_temperature;BME280_humidity;BME280_pressure;Samples;Min_cycle;Max_cycle;Signal;HPM_P1;HPM_P2
2022/10/18 00:01:14;;;;;;;;;;;;;;;14.52;100.00;102509.13;5034623;28;19920;-44
2022/10/18 00:03:40;;;;;;;;;;;;;;;14.49;100.00;102504.03;5039744;28;19916;-44
2022/10/18 00:06:07;;;;;;;;;;;;;;;14.47;100.00;102497.97;5033279;28;19917;-46
2022/10/18 00:08:33;;;;;;;;;;;;;;;14.46;100.00;102498.94;5040660;28;19929;-44
2022/10/18 00:10:58;;;;;;;;;;;;;;;14.46;100.00;102499.81;5040164;28;20306;-46
2022/10/18 00:13:24;;;;;;;;;;;;;;;14.46;100.00;102502.50;5025636;28;19921;-45
2022/10/18 00:15:57;;;;;;;;;;;;;;;14.47;100.00;102500.66;5034866;28;19931;-44
2022/10/18 00:18:23;;;;;;;;;;;;;;;14.45;100.00;102498.09;5023162;28;20006;-44
2022/10/18 00:21:09;;;;;;;;;;;;;;;14.46;100.00;102490.88;5039591;28;20573;-44
2022/10/18 00:23:34;;;;;;;;;;;;;;;14.46;100.00;102491.75;5040013;28;20299;-44
2022/10/18 00:26:10;;;;;;;;;;;;;;;14.45;100.00;102486.50;5040144;28;19917;-45
2022/10/18 00:28:36;;;;;;;;;;;;;;;14.44;100.00;102487.50;5038566;28;20139;-45
2022/10/18 00:31:15;;;;;;;;;;;;;;;14.43;100.00;102497.41;5039125;28;19925;-46
2022/10/18 00:33:40;;;;;;;;;;;;;;;14.43;100.00;102494.72;5040107;28;19917;-45
2022/10/18 00:36:06;;;;;;;;;;;;;;;14.43;100.00;102502.78;5039586;28;20114;-47
2022/10/18 00:38:31;;;;;;;;;;;;;;;14.43;100.00;102501.94;5040050;28;19921;-44
2022/10/18 00:40:56;;;;;;;;;;;;;;;14.41;100.00;102490.47;5039636;28;19916;-44
2022/10/18 00:43:21;;;;;;;;;;;;;;;14.41;100.00;102494.03;5039405;28;20084;-47
2022/10/18 00:45:47;;;;;;;;;;;;;;;14.41;100.00;102487.78;5034685;28;20303;-44
2022/10/18 00:48:12;;;;;;;;;;;;;;;14.40;100.00;102489.63;5039629;28;19921;-47
2022/10/18 00:50:39;;;;;;;;;;;;;;;14.40;100.00;102491.47;5037556;28;20458;-44
2022/10/18 00:53:07;;;;;;;;;;;;;;;14.39;100.00;102495.16;5038527;28;19963;-47
2022/10/18 00:55:32;;;;;;;;;;;;;;;14.38;100.00;102493.47;5039776;28;19917;-46
2022/10/18 00:57:58;;;;;;;;;;;;;;;14.38;100.00;102493.47;5020527;28;20137;-45
2022/10/18 01:00:23;;;;;;;;;;;;;;;14.35;100.00;102508.88;5038898;28;20105;-46
2022/10/18 01:02:48;;;;;;;;;;;;;;;14.32;100.00;102514.56;5030193;28;19917;-47
2022/10/18 01:05:15;;;;;;;;;;;;;;;14.32;100.00;102511.00;5037016;28;19924;-48
2022/10/18 01:07:40;;;;;;;;;;;;;;;14.32;100.00;102508.31;5039968;28;19917;-45
2022/10/18 01:10:15;;;;;;;;;;;;;;;14.30;100.00;102513.00;5039947;28;19916;-44
2022/10/18 01:12:54;;;;;;;;;;;;;;;14.27;100.00;102514.13;5039412;28;19978;-44
2022/10/18 01:15:19;;;;;;;;;;;;;;;14.27;100.00;102511.44;5038618;28;19939;-47
2022/10/18 01:18:05;;;;;;;;;;;;;;;14.27;100.00;102510.59;5024661;28;19921;-48
2022/10/18 01:20:42;;;;;;;;;;;;;;;14.26;100.00;102503.53;5029949;28;19921;-47
2022/10/18 01:23:26;;;;;;;;;;;;;;;14.27;100.00;102516.81;5039821;28;19917;-44
2022/10/18 01:26:09;;;;;;;;;;;;;;;14.27;100.00;102513.28;5034404;28;19967;-45
2022/10/18 01:28:53;;;;;;;;;;;;;;;14.28;100.00;102509.63;5033599;28;19916;-48
2022/10/18 01:31:24;;;;;;;;;;;;;;;14.27;100.00;102506.06;5037962;28;19921;-44
2022/10/18 01:33:57;;;;;;;;;;;;;;;14.28;100.00;102513.13;5039073;28;20009;-46
2022/10/18 01:36:25;;;;;;;;;;;;;;;14.28;100.00;102513.13;5038540;28;19921;-45
2022/10/18 01:38:52;;;;;;;;;;;;;;;14.28;100.00;102512.31;5037595;28;19916;-44
2022/10/18 01:41:18;;;;;;;;;;;;;;;14.28;100.00;102515.81;5037951;28;20090;-45
2022/10/18 01:43:45;;;;;;;;;;;;;;;14.27;100.00;102510.59;5038092;28;19917;-47
2022/10/18 01:46:12;;;;;;;;;;;;;;;14.26;100.00;102511.59;5037499;28;20470;-47
2022/10/18 01:48:38;;;;;;;;;;;;;;;14.27;100.00;102518.66;5039102;28;20377;-44
2022/10/18 01:51:03;;;;;;;;;;;;;;;14.25;100.00;102510.72;5028413;28;19932;-47
2022/10/18 01:53:30;;;;;;;;;;;;;;;14.25;100.00;102512.59;5027819;28;20372;-44
2022/10/18 01:56:04;;;;;;;;;;;;;;;14.25;100.00;102512.59;5038341;28;19916;-45
2022/10/18 01:58:38;;;;;;;;;;;;;;;14.24;100.00;102521.63;5020781;28;19920;-44
2022/10/18 02:01:24;;;;;;;;;;;;;;;14.21;100.00;102517.41;5037780;28;19921;-46
2022/10/18 02:03:52;;;;;;;;;;;;;;;14.21;100.00;102511.19;5037885;28;19913;-43
2022/10/18 02:06:17;;;;;;;;;;;;;;;14.18;100.00;102515.84;5037025;28;19920;-43
2022/10/18 02:08:56;;;;;;;;;;;;;;;14.18;100.00;102520.38;5038377;28;19921;-45
2022/10/18 02:11:21;;;;;;;;;;;;;;;14.15;100.00;102516.16;5023864;28;19929;-43
2022/10/18 02:13:50;;;;;;;;;;;;;;;14.12;100.00;102524.50;5038030;28;19974;-47
2022/10/18 02:16:18;;;;;;;;;;;;;;;14.09;100.00;102522.09;5037669;28;19927;-45
2022/10/18 02:18:47;;;;;;;;;;;;;;;14.02;100.00;102503.97;5038482;28;19987;-44
2022/10/18 02:21:14;;;;;;;;;;;;;;;14.03;100.00;102509.22;5036661;28;19982;-44
2022/10/18 02:23:40;;;;;;;;;;;;;;;14.02;100.00;102507.53;5038077;28;20047;-43
2022/10/18 02:26:06;;;;;;;;;;;;;;;14.01;100.00;102516.56;5038948;28;19970;-46
2022/10/18 02:28:31;;;;;;;;;;;;;;;14.02;100.00;102507.53;5032273;28;19920;-48
2022/10/18 02:30:56;;;;;;;;;;;;;;;14.02;100.00;102512.91;5030243;28;19916;-46
2022/10/18 02:33:31;;;;;;;;;;;;;;;14.01;100.00;102519.25;5037228;28;20327;-44
2022/10/18 02:36:01;;;;;;;;;;;;;;;13.98;100.00;102516.84;5037012;28;19948;-47
2022/10/18 02:38:27;;;;;;;;;;;;;;;13.95;100.00;102515.31;5037688;28;19913;-45
2022/10/18 02:40:53;;;;;;;;;;;;;;;13.95;100.00;102525.19;5037824;28;19920;-45
2022/10/18 02:43:18;;;;;;;;;;;;;;;13.96;100.00;102525.06;5037496;28;20291;-44
2022/10/18 02:45:43;;;;;;;;;;;;;;;13.98;100.00;102524.91;5037380;28;20395;-46
2022/10/18 02:48:08;;;;;;;;;;;;;;;14.00;100.00;102530.97;5038108;28;20366;-43
2022/10/18 02:50:33;;;;;;;;;;;;;;;14.01;100.00;102521.09;5037022;28;19924;-45
2022/10/18 02:52:59;;;;;;;;;;;;;;;14.03;100.00;102521.81;5038007;28;20468;-46
2022/10/18 02:55:24;;;;;;;;;;;;;;;14.05;100.00;102517.97;5037086;28;19921;-47
2022/10/18 02:57:49;;;;;;;;;;;;;;;14.06;100.00;102517.00;5018041;28;19916;-44
2022/10/18 03:00:14;;;;;;;;;;;;;;;14.07;100.00;102524.06;5037880;28;19935;-44
2022/10/18 03:02:39;;;;;;;;;;;;;;;14.08;100.00;102527.59;5029432;28;19968;-44
2022/10/18 03:05:05;;;;;;;;;;;;;;;14.08;100.00;102531.13;5026831;28;20008;-46
2022/10/18 03:07:30;;;;;;;;;;;;;;;14.09;100.00;102532.00;5030274;28;19917;-45
2022/10/18 03:09:55;;;;;;;;;;;;;;;14.09;100.00;102535.53;5037288;28;19928;-47
2022/10/18 03:12:20;;;;;;;;;;;;;;;14.10;100.00;102544.41;5038019;28;19979;-49
2022/10/18 03:14:46;;;;;;;;;;;;;;;14.10;100.00;102542.59;5037228;28;20013;-44
2022/10/18 03:17:11;;;;;;;;;;;;;;;14.09;100.00;102534.69;5036575;28;20023;-43
2022/10/18 03:19:37;;;;;;;;;;;;;;;14.09;100.00;102532.00;5035503;28;19921;-48
2022/10/18 03:22:02;;;;;;;;;;;;;;;14.09;100.00;102532.00;5037569;28;20371;-44
2022/10/18 03:24:27;;;;;;;;;;;;;;;14.08;100.00;102533.81;5041685;28;19928;-44
2022/10/18 03:26:53;;;;;;;;;;;;;;;14.08;100.00;102531.13;5040485;28;19928;-46
2022/10/18 03:29:18;;;;;;;;;;;;;;;14.06;100.00;102535.78;5040731;28;20002;-43
2022/10/18 03:31:43;;;;;;;;;;;;;;;14.05;100.00;102538.63;5040618;28;19928;-43
2022/10/18 03:34:08;;;;;;;;;;;;;;;14.04;100.00;102543.16;5041715;28;19917;-43
2022/10/18 03:36:33;;;;;;;;;;;;;;;14.02;100.00;102542.47;5034930;28;19917;-43
2022/10/18 03:38:59;;;;;;;;;;;;;;;14.00;100.00;102539.03;5037128;28;19923;-43
2022/10/18 03:41:25;;;;;;;;;;;;;;;13.93;100.00;102535.22;5041290;28;20268;-44
2022/10/18 03:43:50;;;;;;;;;;;;;;;13.97;100.00;102533.97;5040784;28;19917;-46
2022/10/18 03:46:15;;;;;;;;;;;;;;;13.95;100.00;102527.88;5040623;28;20328;-45
2022/10/18 03:48:41;;;;;;;;;;;;;;;13.95;100.00;102533.25;5040990;28;20069;-45
2022/10/18 03:51:06;;;;;;;;;;;;;;;13.93;100.00;102525.34;5021120;28;19968;-46
2022/10/18 03:53:31;;;;;;;;;;;;;;;13.92;100.00;102528.19;5029996;28;19943;-45
2022/10/18 03:55:56;;;;;;;;;;;;;;;13.91;100.00;102521.09;5040554;28;19920;-46
2022/10/18 03:58:22;;;;;;;;;;;;;;;13.90;100.00;102522.94;5039822;28;20489;-44
2022/10/18 04:00:51;;;;;;;;;;;;;;;13.88;100.00;102519.53;5040328;28;19913;-45
2022/10/18 04:03:17;;;;;;;;;;;;;;;13.88;100.00;102513.31;5020644;28;20329;-44
2022/10/18 04:05:42;;;;;;;;;;;;;;;13.88;100.00;102516.84;5031543;28;19919;-44
2022/10/18 04:08:08;;;;;;;;;;;;;;;13.88;100.00;102510.63;5037758;28;20371;-43
2022/10/18 04:10:33;;;;;;;;;;;;;;;13.88;100.00;102510.63;5028108;28;19927;-43
2022/10/18 04:12:58;;;;;;;;;;;;;;;13.87;100.00;102517.03;5030970;28;19925;-45
2022/10/18 04:15:23;;;;;;;;;;;;;;;13.87;100.00;102511.66;5040621;28;19917;-44
2022/10/18 04:17:48;;;;;;;;;;;;;;;13.88;100.00;102521.38;5040262;28;19946;-45
2022/10/18 04:20:14;;;;;;;;;;;;;;;13.87;100.00;102525.91;5039123;28;20351;-45
2022/10/18 04:22:39;;;;;;;;;;;;;;;13.87;100.00;102533.13;5037039;28;19917;-45
2022/10/18 04:25:04;;;;;;;;;;;;;;;13.83;100.00;102532.53;5034328;28;19916;-44
2022/10/18 04:27:30;;;;;;;;;;;;;;;13.80;100.00;102528.31;5037934;28;19940;-45
2022/10/18 04:29:55;;;;;;;;;;;;;;;13.78;100.00;102529.44;5038039;28;19917;-48
2022/10/18 04:32:20;;;;;;;;;;;;;;;13.74;100.00;102536.91;5039314;28;20031;-44
2022/10/18 04:34:45;;;;;;;;;;;;;;;13.72;100.00;102532.69;5039686;28;20007;-44
2022/10/18 04:37:10;;;;;;;;;;;;;;;13.68;100.00;102529.44;5034963;28;19921;-45
2022/10/18 04:39:36;;;;;;;;;;;;;;;13.66;100.00;102525.19;5025618;28;19921;-44
2022/10/18 04:42:01;;;;;;;;;;;;;;;13.61;100.00;102531.84;5040092;28;19917;-46
2022/10/18 04:44:26;;;;;;;;;;;;;;;13.57;100.00;102535.78;5039357;28;19912;-47
2022/10/18 04:46:51;;;;;;;;;;;;;;;13.57;100.00;102535.78;5038623;28;19920;-45
2022/10/18 04:49:16;;;;;;;;;;;;;;;13.54;100.00;102536.06;5038266;28;20018;-44
2022/10/18 04:51:42;;;;;;;;;;;;;;;13.53;100.00;102523.63;5039085;28;20126;-44
2022/10/18 04:54:07;;;;;;;;;;;;;;;13.51;100.00;102528.28;5040731;28;19916;-44
2022/10/18 04:56:32;;;;;;;;;;;;;;;13.47;100.00;102526.88;5039657;28;20038;-44
2022/10/18 04:58:58;;;;;;;;;;;;;;;13.43;100.00;102530.81;5039132;28;20817;-43
2022/10/18 05:01:23;;;;;;;;;;;;;;;13.40;100.00;102529.25;5029220;28;20379;-43
2022/10/18 05:03:53;;;;;;;;;;;;;;;13.40;100.00;102528.41;5038712;28;20008;-47
2022/10/18 05:06:18;;;;;;;;;;;;;;;13.42;100.00;102534.47;5038263;28;19917;-44
2022/10/18 05:08:43;;;;;;;;;;;;;;;13.42;100.00;102538.03;5037606;28;19927;-43
2022/10/18 05:11:08;;;;;;;;;;;;;;;13.42;100.00;102539.84;5036080;28;19928;-43
2022/10/18 05:13:33;;;;;;;;;;;;;;;13.41;100.00;102546.22;5034900;28;20580;-44
2022/10/18 05:15:59;;;;;;;;;;;;;;;13.41;100.00;102548.91;5033892;28;20250;-43
2022/10/18 05:18:24;;;;;;;;;;;;;;;13.41;100.00;102546.22;5037709;28;20405;-46
2022/10/18 05:20:49;;;;;;;;;;;;;;;13.40;100.00;102550.72;5038499;28;19912;-46
2022/10/18 05:23:15;;;;;;;;;;;;;;;13.38;100.00;102558.06;5039304;28;20324;-45
2022/10/18 05:25:41;;;;;;;;;;;;;;;13.35;100.00;102555.66;5039743;28;19921;-45
2022/10/18 05:28:06;;;;;;;;;;;;;;;13.35;100.00;102554.81;5022964;28;19925;-46
2022/10/18 05:30:32;;;;;;;;;;;;;;;13.33;100.00;102554.94;5038099;28;19917;-45
2022/10/18 05:32:57;;;;;;;;;;;;;;;13.33;100.00;102554.09;5034434;28;20411;-45
2022/10/18 05:35:22;;;;;;;;;;;;;;;13.31;100.00;102562.25;5027576;28;19983;-46
2022/10/18 05:37:48;;;;;;;;;;;;;;;13.30;100.00;102571.28;5033948;28;19927;-46
2022/10/18 05:40:13;;;;;;;;;;;;;;;13.27;100.00;102568.03;5035468;28;20303;-46
2022/10/18 05:42:38;;;;;;;;;;;;;;;13.18;100.00;102558.97;5035865;28;20027;-44
2022/10/18 05:45:03;;;;;;;;;;;;;;;13.24;100.00;102571.84;5035018;28;20010;-45
2022/10/18 05:47:29;;;;;;;;;;;;;;;13.22;100.00;102563.94;5036265;28;19921;-45
2022/10/18 05:49:54;;;;;;;;;;;;;;;13.22;100.00;102568.44;5036354;28;19920;-45
2022/10/18 05:52:19;;;;;;;;;;;;;;;13.20;100.00;102567.72;5035771;28;19954;-43
2022/10/18 05:54:44;;;;;;;;;;;;;;;13.17;100.00;102568.84;5034595;28;19928;-43
2022/10/18 05:57:09;;;;;;;;;;;;;;;13.16;100.00;102574.34;5036468;28;19931;-45
2022/10/18 05:59:35;;;;;;;;;;;;;;;13.13;100.00;102566.56;5032807;28;19920;-44
2022/10/18 06:02:00;;;;;;;;;;;;;;;13.11;100.00;102571.22;5037908;28;20351;-43
2022/10/18 06:04:25;;;;;;;;;;;;;;;13.09;100.00;102574.03;5035423;28;20046;-45
2022/10/18 06:06:50;;;;;;;;;;;;;;;13.09;100.00;102567.84;5034243;28;19939;-44
2022/10/18 06:09:15;;;;;;;;;;;;;;;13.06;100.00;102579.69;5034127;28;19928;-43
2022/10/18 06:11:41;;;;;;;;;;;;;;;13.04;100.00;102571.75;5019163;28;19920;-42
2022/10/18 06:14:06;;;;;;;;;;;;;;;13.03;100.00;102572.75;5037560;28;20246;-45
2022/10/18 06:16:32;;;;;;;;;;;;;;;12.97;100.00;102570.59;5026350;28;19921;-47
2022/10/18 06:18:58;;;;;;;;;;;;;;;12.95;100.00;102577.94;5037867;28;19917;-45
2022/10/18 06:21:24;;;;;;;;;;;;;;;12.92;100.00;102578.22;5037539;28;19968;-48
2022/10/18 06:23:49;;;;;;;;;;;;;;;12.91;100.00;102586.38;5037859;28;19948;-43
2022/10/18 06:26:15;;;;;;;;;;;;;;;12.88;100.00;102599.09;5036187;28;19917;-45
2022/10/18 06:28:40;;;;;;;;;;;;;;;12.84;100.00;102597.63;5030848;28;19924;-44
2022/10/18 06:31:05;;;;;;;;;;;;;;;12.82;100.00;102602.28;5016329;28;19920;-45
2022/10/18 06:33:31;;;;;;;;;;;;;;;12.80;100.00;102601.56;5033550;28;19940;-46
2022/10/18 06:35:57;;;;;;;;;;;;;;;12.78;100.00;102603.53;5036548;28;19920;-45
2022/10/18 06:38:22;;;;;;;;;;;;;;;12.76;100.00;102605.47;5040405;28;20312;-47
2022/10/18 06:40:47;;;;;;;;;;;;;;;12.73;100.00;102612.94;5034768;28;19924;-44
2022/10/18 06:43:13;;;;;;;;;;;;;;;12.67;100.00;102617.84;5037226;28;19916;-44
2022/10/18 06:45:38;;;;;;;;;;;;;;;12.66;100.00;102618.84;5034732;28;19924;-45
2022/10/18 06:48:03;;;;;;;;;;;;;;;12.65;100.00;102627.88;5037996;28;19962;-45
2022/10/18 06:50:29;;;;;;;;;;;;;;;12.65;100.00;102630.53;5032567;28;20423;-45
2022/10/18 06:52:54;;;;;;;;;;;;;;;12.62;100.00;102630.78;5034793;28;20316;-43
2022/10/18 06:55:19;;;;;;;;;;;;;;;12.64;100.00;102623.50;5015457;28;19959;-45
2022/10/18 06:57:44;;;;;;;;;;;;;;;12.67;100.00;102625.88;5015068;28;20333;-43
2022/10/18 07:00:10;;;;;;;;;;;;;;;12.71;100.00;102639.03;5037848;28;19920;-44
2022/10/18 07:02:36;;;;;;;;;;;;;;;12.71;100.00;102647.94;5036327;28;19913;-43
2022/10/18 07:05:01;;;;;;;;;;;;;;;12.75;100.00;102645.84;5036642;28;19921;-47
2022/10/18 07:07:29;;;;;;;;;;;;;;;12.80;100.00;102640.94;5027852;28;19921;-46
2022/10/18 07:09:54;;;;;;;;;;;;;;;12.85;100.00;102644.09;5031326;28;19921;-46
2022/10/18 07:12:20;;;;;;;;;;;;;;;12.84;100.00;102645.91;5034395;28;19921;-45
2022/10/18 07:14:45;;;;;;;;;;;;;;;12.87;100.00;102655.53;5036594;28;19917;-44
2022/10/18 07:17:10;;;;;;;;;;;;;;;12.89;100.00;102661.59;5025125;28;19964;-43
2022/10/18 07:19:35;;;;;;;;;;;;;;;12.92;100.00;102660.50;5028033;28;20372;-43
2022/10/18 07:22:00;;;;;;;;;;;;;;;12.96;100.00;102665.44;5036060;28;19920;-43
2022/10/18 07:24:26;;;;;;;;;;;;;;;13.00;100.00;102671.41;5030565;28;19917;-44
2022/10/18 07:26:51;;;;;;;;;;;;;;;13.04;100.00;102671.00;5029144;28;20324;-46
2022/10/18 07:29:16;;;;;;;;;;;;;;;13.05;100.00;102680.75;5034015;28;20442;-45
2022/10/18 07:31:41;;;;;;;;;;;;;;;13.04;100.00;102679.06;5029778;28;19935;-46
2022/10/18 07:34:07;;;;;;;;;;;;;;;13.12;100.00;102681.09;5032093;28;20131;-45
2022/10/18 07:36:32;;;;;;;;;;;;;;;13.15;100.00;102690.69;5033757;28;19916;-42
2022/10/18 07:38:58;;;;;;;;;;;;;;;13.18;100.00;102698.47;5033729;28;20435;-43
2022/10/18 07:41:24;;;;;;;;;;;;;;;13.19;100.00;102709.06;5033451;28;19924;-44
2022/10/18 07:43:50;;;;;;;;;;;;;;;13.23;100.00;102709.66;5036858;28;19959;-42
2022/10/18 07:46:16;;;;;;;;;;;;;;;13.32;100.00;102713.41;5033875;28;19917;-46
2022/10/18 07:48:41;;;;;;;;;;;;;;;13.37;100.00;102711.16;5017881;28;19935;-47
2022/10/18 07:51:06;;;;;;;;;;;;;;;13.39;100.00;102714.56;5034658;28;20215;-45
2022/10/18 07:53:33;;;;;;;;;;;;;;;13.47;100.00;102721.97;5037524;28;19913;-46
2022/10/18 07:55:59;;;;;;;;;;;;;;;13.51;100.00;102721.56;5036160;28;20510;-47
2022/10/18 07:58:25;;;;;;;;;;;;;;;13.57;100.00;102728.22;5036140;28;20012;-43
2022/10/18 08:00:50;;;;;;;;;;;;;;;13.63;100.00;102733.06;5030452;28;20025;-44
2022/10/18 08:03:15;;;;;;;;;;;;;;;13.69;100.00;102731.66;5036591;28;20375;-47
2022/10/18 08:05:40;;;;;;;;;;;;;;;13.75;100.00;102739.19;5038980;28;19928;-43
2022/10/18 08:08:05;;;;;;;;;;;;;;;13.80;100.00;102736.94;5039616;28;19960;-44
2022/10/18 08:10:30;;;;;;;;;;;;;;;13.87;100.00;102734.56;5039056;28;19978;-44
2022/10/18 08:12:56;;;;;;;;;;;;;;;13.96;100.00;102749.84;5037337;28;19917;-46
2022/10/18 08:15:23;;;;;;;;;;;;;;;14.03;100.00;102745.63;5039631;28;19917;-45
2022/10/18 08:17:49;;;;;;;;;;;;;;;14.09;100.00;102745.09;5039596;28;20472;-43
2022/10/18 08:20:14;;;;;;;;;;;;;;;14.18;100.00;102751.47;5035196;28;19921;-45
2022/10/18 08:22:39;;;;;;;;;;;;;;;14.27;100.00;102749.78;5039612;28;19971;-46
2022/10/18 08:25:04;;;;;;;;;;;;;;;14.34;100.00;102756.28;5035158;28;19921;-45
2022/10/18 08:27:29;;;;;;;;;;;;;;;14.33;100.00;102755.47;5039958;28;19939;-44
2022/10/18 08:29:55;;;;;;;;;;;;;;;14.26;100.00;102748.09;5037207;28;20370;-44
2022/10/18 08:32:20;;;;;;;;;;;;;;;14.21;100.00;102750.34;5037939;28;19925;-46
2022/10/18 08:34:46;;;;;;;;;;;;;;;14.19;100.00;102761.25;5038814;28;20556;-44
2022/10/18 08:37:11;;;;;;;;;;;;;;;14.14;100.00;102767.03;5037456;28;19935;-44
2022/10/18 08:39:36;;;;;;;;;;;;;;;14.18;100.00;102763.06;5038658;28;20003;-48
2022/10/18 08:42:07;;;;;;;;;;;;;;;14.16;100.00;102764.19;5039792;28;19944;-45
2022/10/18 08:44:40;;;;;;;;;;;;;;;14.07;100.00;102757.81;5037903;28;19967;-46
2022/10/18 08:47:10;;;;;;;;;;;;;;;14.11;100.00;102764.59;5039048;28;19936;-47
2022/10/18 08:49:42;;;;;;;;;;;;;;;14.13;100.00;102767.16;5038181;28;20494;-45
2022/10/18 08:52:19;;;;;;;;;;;;;;;14.18;100.00;102767.59;5039587;28;20356;-44
2022/10/18 08:54:54;;;;;;;;;;;;;;;14.21;100.00;102761.94;5038626;28;20364;-46
2022/10/18 08:57:20;;;;;;;;;;;;;;;14.17;100.00;102761.38;5038830;28;19917;-44
2022/10/18 08:59:45;;;;;;;;;;;;;;;14.15;100.00;102763.34;5038248;28;20260;-43
2022/10/18 09:02:29;;;;;;;;;;;;;;;14.17;100.00;102772.13;5031926;28;19942;-44
2022/10/18 09:05:18;;;;;;;;;;;;;;;14.23;100.00;102778.78;5029912;28;19935;-46
2022/10/18 09:07:56;;;;;;;;;;;;;;;14.30;100.00;102776.38;5038281;28;19939;-43
2022/10/18 09:10:41;;;;;;;;;;;;;;;14.36;100.00;102773.16;5035956;28;19986;-47
2022/10/18 09:13:06;;;;;;;;;;;;;;;14.44;100.00;102780.50;5036555;28;20057;-43
2022/10/18 09:15:43;;;;;;;;;;;;;;;14.48;100.00;102790.00;5035585;28;19963;-44
2022/10/18 09:18:15;;;;;;;;;;;;;;;14.46;100.00;102786.59;5038552;28;19960;-46
2022/10/18 09:20:56;;;;;;;;;;;;;;;14.41;100.00;102773.59;5036139;28;20450;-45
2022/10/18 09:23:30;;;;;;;;;;;;;;;14.34;100.00;102775.97;5021603;28;20068;-46
2022/10/18 09:26:03;;;;;;;;;;;;;;;14.34;100.00;102780.50;5037881;28;19952;-45
2022/10/18 09:28:28;;;;;;;;;;;;;;;14.40;100.00;102779.94;5037926;28;20244;-43
2022/10/18 09:31:06;;;;;;;;;;;;;;;14.47;100.00;102778.38;5036820;28;20430;-45
2022/10/18 09:33:31;;;;;;;;;;;;;;;14.52;100.00;102776.13;5037390;28;20352;-45
2022/10/18 09:35:59;;;;;;;;;;;;;;;14.61;100.00;102776.31;5037934;28;20023;-44
2022/10/18 09:38:26;;;;;;;;;;;;;;;14.70;100.00;102779.03;5038560;28;20439;-43
2022/10/18 09:40:57;;;;;;;;;;;;;;;14.81;100.00;102780.72;5037335;28;19998;-43
2022/10/18 09:43:24;;;;;;;;;;;;;;;14.90;100.00;102781.69;5036213;28;19920;-46
2022/10/18 09:45:51;;;;;;;;;;;;;;;14.97;100.00;102784.66;5036924;28;19921;-46
2022/10/18 09:48:19;;;;;;;;;;;;;;;15.06;100.00;102783.84;5037951;28;20227;-47
2022/10/18 09:50:47;;;;;;;;;;;;;;;15.16;100.00;102781.13;5036471;28;19921;-44
2022/10/18 09:53:18;;;;;;;;;;;;;;;15.27;100.00;102784.53;5034877;28;20126;-44
2022/10/18 09:56:04;;;;;;;;;;;;;;;15.36;100.00;102780.09;5036374;28;19921;-44
2022/10/18 09:58:46;;;;;;;;;;;;;;;15.48;100.00;102781.63;5027667;28;20427;-43
2022/10/18 10:01:15;;;;;;;;;;;;;;;15.67;100.00;102782.56;5036217;28;20389;-47
2022/10/18 10:03:41;;;;;;;;;;;;;;;15.85;100.00;102780.81;5034641;28;20474;-43
2022/10/18 10:06:13;;;;;;;;;;;;;;;16.01;100.00;102785.56;5039618;28;20023;-45
2022/10/18 10:08:40;;;;;;;;;;;;;;;16.18;100.00;102794.69;5035048;28;20356;-44
2022/10/18 10:11:24;;;;;;;;;;;;;;;16.31;100.00;102794.34;5037484;28;19982;-44
2022/10/18 10:13:50;;;;;;;;;;;;;;;16.39;100.00;102793.56;5026763;28;20231;-46
2022/10/18 10:16:16;;;;;;;;;;;;;;;16.52;100.00;102795.91;5037204;28;19921;-46
2022/10/18 10:18:42;;;;;;;;;;;;;;;16.63;100.00;102784.88;5035985;28;19964;-48
2022/10/18 10:21:13;;;;;;;;;;;;;;;16.76;100.00;102792.59;5034761;28;19967;-47
2022/10/18 10:23:44;;;;;;;;;;;;;;;16.85;100.00;102804.34;5035039;28;19917;-46
2022/10/18 10:26:22;;;;;;;;;;;;;;;16.94;100.00;102811.53;5019533;28;19921;-44
2022/10/18 10:28:47;;;;;;;;;;;;;;;17.04;100.00;102804.19;5036425;28;19924;-44
2022/10/18 10:31:15;;;;;;;;;;;;;;;17.20;100.00;102802.63;5036670;28;20318;-47
2022/10/18 10:33:43;;;;;;;;;;;;;;;17.34;100.00;102804.75;5034408;28;20006;-45
2022/10/18 10:36:20;;;;;;;;;;;;;;;17.40;100.00;102811.38;5036102;28;20285;-46
2022/10/18 10:39:01;;;;;;;;;;;;;;;17.45;100.00;102815.31;5037415;28;20364;-44
2022/10/18 10:41:26;;;;;;;;;;;;;;;17.57;100.00;102818.59;5038003;28;19921;-43
2022/10/18 10:43:52;;;;;;;;;;;;;;;17.68;100.00;102825.56;5036444;28;20354;-44
2022/10/18 10:46:19;;;;;;;;;;;;;;;17.76;100.00;102822.06;5036248;28;20301;-49
2022/10/18 10:48:44;;;;;;;;;;;;;;;17.86;100.00;102822.81;5017701;28;19916;-48
2022/10/18 10:51:09;;;;;;;;;;;;;;;17.97;100.00;102827.09;5036544;28;20397;-45
2022/10/18 10:53:49;;;;;;;;;;;;;;;17.97;100.00;102824.41;5036131;28;19987;-46
2022/10/18 10:56:26;;;;;;;;;;;;;;;18.02;100.00;102830.16;5018758;28;19917;-45
2022/10/18 10:58:52;;;;;;;;;;;;;;;18.12;100.00;102817.38;5018030;28;19924;-43
2022/10/18 11:01:19;;;;;;;;;;;;;;;18.24;100.00;102828.75;5035978;28;19916;-46
2022/10/18 11:03:46;;;;;;;;;;;;;;;18.20;100.00;102820.13;5035139;28;19977;-44
2022/10/18 11:06:24;;;;;;;;;;;;;;;18.19;100.00;102826.53;5036364;28;20394;-48
2022/10/18 11:08:51;;;;;;;;;;;;;;;18.31;100.00;102831.63;5035176;28;19917;-44
2022/10/18 11:11:25;;;;;;;;;;;;;;;18.43;100.00;102833.03;5036776;28;19940;-45
2022/10/18 11:13:55;;;;;;;;;;;;;;;18.52;100.00;102834.75;5035659;28;19932;-45
2022/10/18 11:16:28;;;;;;;;;;;;;;;18.57;100.00;102839.69;5035847;28;19917;-47
2022/10/18 11:18:55;;;;;;;;;;;;;;;18.64;100.00;102833.44;5034150;28;20366;-44
2022/10/18 11:21:26;;;;;;;;;;;;;;;18.75;100.00;102832.25;5036766;28;20375;-43
2022/10/18 11:23:51;;;;;;;;;;;;;;;18.82;100.00;102824.31;5035513;28;19917;-47
2022/10/18 11:26:29;;;;;;;;;;;;;;;18.79;100.00;102819.25;5036207;28;20214;-46
2022/10/18 11:29:06;;;;;;;;;;;;;;;18.71;100.00;102833.59;5035558;28;19970;-45
2022/10/18 11:31:46;;;;;;;;;;;;;;;18.77;100.00;102835.66;5035929;28;19921;-45
2022/10/18 11:34:11;;;;;;;;;;;;;;;18.95;100.00;102830.09;5034836;28;19928;-44
2022/10/18 11:36:54;;;;;;;;;;;;;;;18.88;93.87;102818.25;5036577;28;19912;-47
2022/10/18 11:39:28;;;;;;;;;;;;;;;18.80;100.00;102827.22;5034723;28;19917;-47
2022/10/18 11:42:06;;;;;;;;;;;;;;;18.88;100.00;102825.56;5041173;28;20188;-44
2022/10/18 11:44:36;;;;;;;;;;;;;;;19.05;100.00;102821.00;5040955;28;20295;-45
2022/10/18 11:47:12;;;;;;;;;;;;;;;19.19;100.00;102818.44;5040193;28;19925;-43
2022/10/18 11:50:16;;;;;;;;;;;;;;;19.38;95.99;102819.94;5038799;28;19939;-44
2022/10/18 11:52:53;;;;;;;;;;;;;;;19.52;90.94;102829.25;4994791;28;19948;-47
2022/10/18 11:55:37;;;;;;;;;;;;;;;19.55;90.34;102826.19;4997304;28;20020;-48
2022/10/18 11:58:12;;;;;;;;;;;;;;;19.62;94.32;102814.63;5022832;28;19982;-44
2022/10/18 12:00:38;;;;;;;;;;;;;;;19.74;94.26;102818.69;5039027;28;20782;-47
2022/10/18 12:03:13;;;;;;;;;;;;;;;19.97;100.00;102817.97;5039151;28;19916;-43
2022/10/18 12:05:39;;;;;;;;;;;;;;;20.35;100.00;102821.69;5040069;28;19956;-45
2022/10/18 12:08:11;;;;;;;;;;;;;;;20.66;100.00;102808.13;5033056;28;19979;-44
2022/10/18 12:10:36;;;;;;;;;;;;;;;20.94;100.00;102807.56;5033190;28;19931;-46
2022/10/18 12:13:04;;;;;;;;;;;;;;;21.26;100.00;102807.47;5030069;28;19921;-43
2022/10/18 12:15:32;;;;;;;;;;;;;;;21.33;76.87;102811.13;5039489;28;20003;-47
2022/10/18 12:18:00;;;;;;;;;;;;;;;21.34;89.98;102810.97;5036620;28;19917;-44
2022/10/18 12:20:30;;;;;;;;;;;;;;;21.63;95.18;102805.78;5039116;28;19956;-46
2022/10/18 12:23:01;;;;;;;;;;;;;;;22.01;100.00;102800.22;5038788;28;20007;-44
2022/10/18 12:25:32;;;;;;;;;;;;;;;22.46;95.52;102804.56;5040226;28;19996;-47
2022/10/18 12:28:06;;;;;;;;;;;;;;;22.81;89.24;102798.41;5038906;28;20399;-46
2022/10/18 12:30:36;;;;;;;;;;;;;;;23.03;80.32;102807.41;5039220;28;19924;-48
2022/10/18 12:33:05;;;;;;;;;;;;;;;23.23;88.49;102805.69;5038308;28;19928;-45